Time;durP1;ratioP1;P1;durP2;ratioP2;P2;SDS_P1;SDS_P2;PMS_P1;PMS_P2;Temp;Humidity;BMP_temperature;BMP_pressure;BME280_temperature;BME280_humidity;BME280_pressure;Samples;Min_cycle;Max_cycle;Signal;HPM_P1;HPM_P2
2022/08/27 00:02:10;;;;;;;11.10;8.95;;;;;;;21.06;75.85;99299.47;4910065;29;21177;-74
2022/08/27 00:04:37;;;;;;;11.87;7.80;;;;;;;21.06;75.65;99295.97;4903467;29;20454;-74
2022/08/27 00:07:03;;;;;;;8.40;7.57;;;;;;;21.04;75.70;99300.69;4903427;29;20225;-74
2022/08/27 00:09:29;;;;;;;10.00;8.67;;;;;;;21.00;75.74;99295.66;4903329;29;21065;-74
2022/08/27 00:11:56;;;;;;;13.23;8.93;;;;;;;21.03;75.58;99304.34;4904643;29;20498;-74
2022/08/27 00:14:22;;;;;;;9.03;7.90;;;;;;;21.04;75.34;99285.47;4909254;29;20242;-74
2022/08/27 00:16:47;;;;;;;8.47;7.23;;;;;;;21.06;75.42;99282.63;4908796;29;20482;-73
2022/08/27 00:19:13;;;;;;;10.13;8.63;;;;;;;21.07;75.31;99281.63;4908349;29;21401;-73
2022/08/27 00:21:38;;;;;;;9.40;7.20;;;;;;;21.10;75.38;99284.78;4905637;29;21030;-73
2022/08/27 00:24:04;;;;;;;9.23;8.00;;;;;;;21.15;75.11;99282.44;4913416;29;20956;-73
2022/08/27 00:26:29;;;;;;;8.70;7.87;;;;;;;21.19;74.99;99277.56;4908376;29;20291;-73
2022/08/27 00:28:55;;;;;;;10.67;9.03;;;;;;;21.21;75.08;99280.91;4912678;29;20603;-74
2022/08/27 00:31:20;;;;;;;9.97;8.97;;;;;;;21.21;74.82;99275.56;4908045;29;20754;-73
2022/08/27 00:33:46;;;;;;;10.90;9.80;;;;;;;21.24;75.20;99280.53;4905534;29;20486;-73
2022/08/27 00:36:13;;;;;;;13.00;9.20;;;;;;;21.25;75.42;99279.53;4908204;29;20346;-73
2022/08/27 00:38:40;;;;;;;9.60;8.60;;;;;;;21.26;75.15;99278.53;4907783;29;20629;-74
2022/08/27 00:41:08;;;;;;;11.23;8.20;;;;;;;21.28;74.89;99276.53;4902130;29;20499;-75
2022/08/27 00:43:50;;;;;;;11.53;9.30;;;;;;;21.28;74.84;99281.88;4910545;29;21051;-75
2022/08/27 00:46:31;;;;;;;13.43;9.47;;;;;;;21.20;74.89;99271.22;4907995;29;20473;-75
2022/08/27 00:49:04;;;;;;;14.17;8.73;;;;;;;21.15;75.13;99273.59;4912237;29;21283;-74
2022/08/27 00:51:29;;;;;;;10.07;8.90;;;;;;;21.12;75.38;99272.09;4908880;29;20474;-75
2022/08/27 00:53:57;;;;;;;13.43;9.73;;;;;;;21.04;75.57;99274.78;4912933;29;20457;-75
2022/08/27 00:56:26;;;;;;;12.60;9.43;;;;;;;20.99;75.71;99267.28;4922723;29;20209;-74
2022/08/27 00:58:53;;;;;;;11.13;8.90;;;;;;;20.95;76.00;99268.66;4904486;29;20506;-75
2022/08/27 01:01:24;;;;;;;12.35;11.05;;;;;;;20.97;76.24;99269.28;4918642;29;20570;-74
2022/08/27 01:03:54;;;;;;;13.03;9.83;;;;;;;20.93;76.22;99265.31;4916315;29;20204;-75
2022/08/27 01:06:22;;;;;;;16.57;11.23;;;;;;;20.92;76.28;99265.47;4909208;29;20531;-74
2022/08/27 01:08:55;;;;;;;11.10;8.97;;;;;;;20.92;76.40;99266.31;4914857;29;20983;-74
2022/08/27 01:11:22;;;;;;;10.87;9.77;;;;;;;20.94;76.28;99261.63;4914603;29;20458;-75
2022/08/27 01:13:48;;;;;;;9.63;8.60;;;;;;;20.95;76.14;99266.00;4914472;29;20471;-75
2022/08/27 01:16:21;;;;;;;10.03;8.87;;;;;;;20.99;76.06;99261.13;4915298;29;20497;-74
2022/08/27 01:18:46;;;;;;;12.83;10.17;;;;;;;21.03;75.97;99254.41;4912037;29;20658;-75
2022/08/27 01:21:36;;;;;;;12.63;10.13;;;;;;;21.06;75.85;99259.41;4924652;29;20472;-75
2022/08/27 01:24:24;;;;;;;10.50;9.37;;;;;;;21.05;75.58;99248.91;4906178;29;20211;-75
2022/08/27 01:26:49;;;;;;;15.47;10.20;;;;;;;20.97;75.78;99247.13;4915997;29;20498;-75
2022/08/27 01:29:16;;;;;;;14.90;11.60;;;;;;;20.89;76.06;99249.81;4910909;29;20465;-75
2022/08/27 01:31:41;;;;;;;15.93;11.70;;;;;;;20.85;76.28;99240.50;4915026;29;20662;-76
2022/08/27 01:34:07;;;;;;;16.55;13.52;;;;;;;20.87;76.73;99239.28;4921688;29;20485;-75
2022/08/27 01:36:33;;;;;;;15.83;13.20;;;;;;;20.84;76.98;99236.97;4914128;29;20746;-75
2022/08/27 01:38:58;;;;;;;15.90;12.07;;;;;;;20.82;77.06;99236.34;4912113;29;20216;-75
2022/08/27 01:41:25;;;;;;;16.20;10.93;;;;;;;20.84;77.07;99231.63;4912082;29;20216;-75
2022/08/27 01:43:51;;;;;;;14.40;10.73;;;;;;;20.87;76.96;99244.63;4918121;29;20504;-75
2022/08/27 01:46:22;;;;;;;12.87;11.50;;;;;;;20.89;76.73;99233.78;4907343;29;21076;-75
2022/08/27 01:48:47;;;;;;;13.77;10.93;;;;;;;20.88;76.63;99230.31;4913926;29;20303;-75
2022/08/27 01:51:13;;;;;;;16.43;11.90;;;;;;;20.89;76.50;99229.28;4921928;29;20569;-75
2022/08/27 01:53:38;;;;;;;12.17;10.97;;;;;;;20.89;76.61;99231.94;4915495;29;20260;-75
2022/08/27 01:56:04;;;;;;;13.90;11.70;;;;;;;20.88;76.52;99229.47;4913718;29;20265;-75
2022/08/27 01:58:31;;;;;;;15.00;12.93;;;;;;;20.81;76.76;99239.16;4908878;29;20794;-75
2022/08/27 02:01:01;;;;;;;15.73;12.13;;;;;;;20.78;76.80;99230.50;4905960;29;20210;-75
2022/08/27 02:03:27;;;;;;;15.80;11.33;;;;;;;20.77;76.87;99231.50;4905755;29;20484;-75
2022/08/27 02:05:53;;;;;;;14.80;12.40;;;;;;;20.78;76.79;99235.00;4916236;29;20461;-75
2022/08/27 02:08:19;;;;;;;13.90;12.60;;;;;;;20.79;76.68;99217.97;4911402;29;20230;-75
2022/08/27 02:10:46;;;;;;;16.40;11.70;;;;;;;20.81;76.63;99221.31;4911085;29;20836;-75
2022/08/27 02:13:12;;;;;;;13.40;11.57;;;;;;;20.85;76.56;99221.81;4906414;29;20440;-75
2022/08/27 02:15:38;;;;;;;12.43;10.97;;;;;;;20.85;76.60;99217.31;4915354;29;20487;-75
2022/08/27 02:18:05;;;;;;;13.17;11.30;;;;;;;20.87;76.58;99217.94;4914586;29;20249;-75
2022/08/27 02:20:30;;;;;;;16.57;12.60;;;;;;;20.89;76.37;99205.25;4914235;29;20476;-75
2022/08/27 02:22:57;;;;;;;14.97;13.37;;;;;;;20.91;76.40;99211.25;4914329;29;20477;-75
2022/08/27 02:25:22;;;;;;;13.60;10.87;;;;;;;20.90;76.41;99208.75;4922317;29;20206;-75
2022/08/27 02:27:48;;;;;;;15.50;12.03;;;;;;;20.87;76.48;99215.28;4906551;29;20546;-75
2022/08/27 02:30:19;;;;;;;17.10;12.20;;;;;;;20.86;76.43;99207.44;4906024;29;20659;-75
2022/08/27 02:32:46;;;;;;;14.93;13.03;;;;;;;20.83;76.58;99211.31;4913705;29;20489;-75
2022/08/27 02:35:14;;;;;;;21.57;12.47;;;;;;;20.82;76.84;99211.47;4916500;29;20555;-75
2022/08/27 02:37:40;;;;;;;13.80;10.97;;;;;;;20.81;76.84;99205.28;4908390;29;20478;-75
2022/08/27 02:40:07;;;;;;;16.27;11.57;;;;;;;20.83;76.76;99208.63;4904860;29;20504;-76
2022/08/27 02:42:33;;;;;;;13.20;11.77;;;;;;;20.81;76.72;99210.63;4916588;29;20450;-76
2022/08/27 02:44:59;;;;;;;14.83;12.50;;;;;;;20.81;76.64;99205.28;4909885;29;20644;-75
2022/08/27 02:47:24;;;;;;;14.27;11.40;;;;;;;20.84;76.58;99210.28;4906764;29;20238;-75
2022/08/27 02:49:50;;;;;;;13.80;11.43;;;;;;;20.86;76.46;99207.44;4913064;29;20200;-75
2022/08/27 02:52:15;;;;;;;18.10;13.07;;;;;;;20.84;76.45;99209.44;4906049;29;20702;-75
2022/08/27 02:54:42;;;;;;;16.13;13.30;;;;;;;20.82;76.51;99214.97;4904516;29;20248;-75
2022/08/27 02:57:08;;;;;;;14.20;11.83;;;;;;;20.83;76.30;99211.31;4908582;29;20236;-75
2022/08/27 02:59:33;;;;;;;21.80;13.83;;;;;;;20.83;76.41;99205.13;4913467;29;20495;-75
2022/08/27 03:01:59;;;;;;;15.80;12.27;;;;;;;20.85;76.58;99195.94;4916841;29;20257;-76
2022/08/27 03:04:26;;;;;;;18.63;14.10;;;;;;;20.91;76.70;99203.25;4912106;29;20517;-75
2022/08/27 03:06:53;;;;;;;17.10;12.47;;;;;;;20.89;76.81;99189.25;4911677;29;20501;-75
2022/08/27 03:09:19;;;;;;;15.90;13.20;;;;;;;20.85;76.89;99192.44;4903052;29;20568;-75
2022/08/27 03:11:44;;;;;;;18.13;13.23;;;;;;;20.79;76.89;99193.94;4911879;29;20448;-75
2022/08/27 03:14:10;;;;;;;16.83;13.50;;;;;;;20.71;77.01;99186.84;4912140;29;20215;-75
2022/08/27 03:16:36;;;;;;;16.90;14.00;;;;;;;20.65;77.04;99192.84;4910109;29;20266;-75
2022/08/27 03:19:05;;;;;;;16.20;12.67;;;;;;;20.61;77.25;99186.19;4913269;29;20239;-75
2022/08/27 03:21:31;;;;;;;16.50;11.77;;;;;;;20.57;77.38;99189.38;4923902;29;20491;-75
2022/08/27 03:23:57;;;;;;;17.23;12.40;;;;;;;20.56;77.27;99188.56;4911594;29;20551;-76
2022/08/27 03:26:22;;;;;;;15.37;11.33;;;;;;;20.54;77.34;99188.72;4923587;29;20454;-75
2022/08/27 03:28:47;;;;;;;18.20;13.80;;;;;;;20.55;77.22;99186.91;4915038;29;20468;-75
2022/08/27 03:31:25;;;;;;;17.63;13.40;;;;;;;20.53;77.35;99192.38;4916118;29;20248;-74
2022/08/27 03:33:52;;;;;;;18.57;12.20;;;;;;;20.51;77.51;99185.53;4909662;29;20207;-75
2022/08/27 03:36:17;;;;;;;14.90;11.20;;;;;;;20.52;77.36;99185.38;4917493;29;20491;-75
2022/08/27 03:38:43;;;;;;;14.80;12.30;;;;;;;20.54;77.02;99188.72;4921581;29;20557;-75
2022/08/27 03:41:08;;;;;;;18.20;13.43;;;;;;;20.54;77.12;99185.22;4917270;29;20213;-75
2022/08/27 03:43:34;;;;;;;16.10;12.37;;;;;;;20.51;77.19;99182.88;4911385;29;20862;-75
2022/08/27 03:46:00;;;;;;;15.67;14.07;;;;;;;20.49;77.14;99188.34;4907920;29;20208;-75
2022/08/27 03:48:27;;;;;;;15.57;12.63;;;;;;;20.51;76.99;99190.88;4913854;29;20486;-75
2022/08/27 03:50:53;;;;;;;12.57;11.13;;;;;;;20.54;77.15;99190.56;4917253;29;20309;-75
2022/08/27 03:53:21;;;;;;;13.80;12.00;;;;;;;20.54;77.13;99188.72;4922261;29;20490;-75
2022/08/27 03:55:47;;;;;;;13.63;11.60;;;;;;;20.57;77.11;99187.53;4903374;29;20485;-76
2022/08/27 03:58:13;;;;;;;13.60;10.40;;;;;;;20.55;77.08;99190.38;4901283;29;20474;-76
2022/08/27 04:00:40;;;;;;;11.02;9.68;;;;;;;20.57;77.21;99182.19;4916202;29;20997;-75
2022/08/27 04:03:06;;;;;;;13.60;10.17;;;;;;;20.61;77.02;99182.72;4919845;29;20239;-75
2022/08/27 04:05:33;;;;;;;16.93;13.80;;;;;;;20.63;77.29;99183.34;4917590;29;20473;-75
2022/08/27 04:07:59;;;;;;;17.47;13.70;;;;;;;20.63;77.17;99184.19;4917928;29;20499;-75
2022/08/27 04:10:26;;;;;;;16.40;13.37;;;;;;;20.60;77.11;99176.50;4909286;29;20550;-75
2022/08/27 04:12:52;;;;;;;16.13;12.57;;;;;;;20.58;77.22;99172.34;4910371;29;20472;-76
2022/08/27 04:15:18;;;;;;;19.70;13.10;;;;;;;20.60;77.29;99178.34;4913094;29;20583;-75
2022/08/27 04:17:43;;;;;;;17.60;13.27;;;;;;;20.63;77.21;99176.19;4911954;29;21128;-75
2022/08/27 04:20:09;;;;;;;14.40;12.50;;;;;;;20.66;77.16;99180.34;4914737;29;20263;-75
2022/08/27 04:22:35;;;;;;;18.53;12.67;;;;;;;20.67;77.18;99182.84;4920222;29;20214;-75
2022/08/27 04:25:00;;;;;;;19.80;12.97;;;;;;;20.68;77.29;99183.66;4920623;29;20485;-75
2022/08/27 04:27:26;;;;;;;16.47;12.57;;;;;;;20.70;76.97;99187.00;4909240;29;20270;-75
2022/08/27 04:29:57;;;;;;;21.47;13.63;;;;;;;20.71;77.06;99194.84;4913461;29;20667;-76
2022/08/27 04:32:23;;;;;;;19.43;14.67;;;;;;;20.73;77.25;99200.00;4916754;29;20523;-75
2022/08/27 04:34:51;;;;;;;17.10;13.37;;;;;;;20.72;77.18;99206.34;4911175;29;20530;-75
2022/08/27 04:37:16;;;;;;;12.37;10.60;;;;;;;20.70;77.12;99203.00;4910759;29;20474;-75
2022/08/27 04:39:42;;;;;;;13.90;11.50;;;;;;;20.67;77.44;99206.03;4908552;29;20824;-75
2022/08/27 04:42:07;;;;;;;15.47;12.43;;;;;;;20.64;77.44;99209.03;4917688;29;20205;-75
2022/08/27 04:44:33;;;;;;;14.63;11.60;;;;;;;20.59;77.54;99212.22;4911119;29;20207;-75
2022/08/27 04:47:01;;;;;;;15.77;11.93;;;;;;;20.58;77.75;99215.03;4924857;29;20228;-76
2022/08/27 04:49:27;;;;;;;16.13;11.80;;;;;;;20.57;77.72;99206.22;4913736;29;20926;-75
2022/08/27 04:51:53;;;;;;;16.77;12.17;;;;;;;20.61;77.64;99209.38;4914641;29;20476;-75
2022/08/27 04:54:19;;;;;;;15.80;11.77;;;;;;;20.64;77.50;99212.53;4913151;29;21245;-75
2022/08/27 04:56:44;;;;;;;15.10;12.83;;;;;;;20.66;77.44;99209.72;4914831;29;20487;-75
2022/08/27 04:59:11;;;;;;;13.20;11.13;;;;;;;20.70;77.33;99216.34;4912798;29;20771;-76
2022/08/27 05:01:38;;;;;;;14.13;11.13;;;;;;;20.73;77.26;99213.34;4898092;29;20230;-76
2022/08/27 05:04:04;;;;;;;12.57;11.17;;;;;;;20.74;77.39;99220.34;4899059;29;20463;-74
2022/08/27 05:06:30;;;;;;;15.50;12.50;;;;;;;20.71;77.35;99218.88;4899235;29;20508;-76
2022/08/27 05:08:57;;;;;;;16.60;12.10;;;;;;;20.69;77.56;99217.38;4909437;29;20496;-74
2022/08/27 05:11:25;;;;;;;19.00;13.53;;;;;;;20.69;77.61;99228.88;4910450;29;20457;-76
2022/08/27 05:13:52;;;;;;;13.93;10.87;;;;;;;20.69;77.40;99223.53;4899251;29;20476;-76
2022/08/27 05:16:21;;;;;;;15.37;13.77;;;;;;;20.68;77.67;99221.84;4891450;29;20480;-75
2022/08/27 05:18:49;;;;;;;15.70;12.10;;;;;;;20.71;77.59;99231.34;4905930;29;20876;-76
2022/08/27 05:21:17;;;;;;;13.30;10.67;;;;;;;20.74;77.39;99234.53;4897888;29;21015;-76
2022/08/27 05:23:43;;;;;;;14.20;12.47;;;;;;;20.81;77.35;99229.31;4906157;29;20498;-77
2022/08/27 05:26:08;;;;;;;17.67;12.13;;;;;;;20.85;77.20;99230.66;4908070;29;20485;-76
2022/08/27 05:28:34;;;;;;;16.00;13.27;;;;;;;20.88;77.06;99226.81;4908464;29;20721;-77
2022/08/27 05:31:05;;;;;;;16.40;13.90;;;;;;;20.90;76.85;99224.78;4921399;29;20272;-75
2022/08/27 05:33:31;;;;;;;19.57;12.93;;;;;;;20.90;76.94;99224.78;4909253;29;20242;-75
2022/08/27 05:35:58;;;;;;;12.80;11.50;;;;;;;20.92;77.03;99223.59;4906267;29;21033;-74
2022/08/27 05:38:26;;;;;;;16.73;12.03;;;;;;;20.95;77.08;99225.94;4911706;29;21099;-76
2022/08/27 05:41:08;;;;;;;17.13;13.87;;;;;;;21.01;76.72;99227.09;4913190;29;21292;-75
2022/08/27 05:43:38;;;;;;;13.70;12.07;;;;;;;21.01;76.60;99224.41;4910389;29;20457;-75
2022/08/27 05:46:07;;;;;;;11.87;10.43;;;;;;;21.02;76.50;99228.75;4905107;29;20461;-75
2022/08/27 05:48:34;;;;;;;13.67;11.30;;;;;;;21.05;76.54;99233.72;4908218;29;20820;-75
2022/08/27 05:51:09;;;;;;;20.07;12.27;;;;;;;21.06;76.39;99229.22;4904190;29;20594;-76
2022/08/27 05:53:35;;;;;;;13.53;11.40;;;;;;;21.09;76.19;99231.53;4902566;29;20475;-76
2022/08/27 05:56:00;;;;;;;14.43;12.23;;;;;;;21.13;76.18;99235.53;4902975;29;21613;-75
2022/08/27 06:01:10;;;;;;;18.13;11.90;;;;;;;21.24;76.16;99227.13;4923080;29;20587;-77
2022/08/27 06:03:37;;;;;;;17.35;14.20;;;;;;;21.32;76.03;99227.06;4905685;29;20495;-75
2022/08/27 06:06:08;;;;;;;12.87;11.57;;;;;;;21.38;76.10;99223.72;4915781;29;20794;-77
2022/08/27 06:08:35;;;;;;;15.30;12.80;;;;;;;21.37;75.79;99235.41;4903717;29;20487;-75
2022/08/27 06:11:04;;;;;;;15.57;12.37;;;;;;;21.37;75.51;99227.41;4908042;29;20570;-75
2022/08/27 06:13:31;;;;;;;15.30;13.53;;;;;;;21.36;75.28;99225.72;4910411;29;20454;-75
2022/08/27 06:16:05;;;;;;;16.73;12.47;;;;;;;21.37;75.36;99227.41;4913550;29;20506;-76
2022/08/27 06:18:31;;;;;;;13.57;12.17;;;;;;;21.42;75.17;99226.88;4906050;29;20524;-75
2022/08/27 06:20:57;;;;;;;14.83;11.53;;;;;;;21.49;74.85;99227.00;4915781;29;20904;-75
2022/08/27 06:23:23;;;;;;;15.37;12.80;;;;;;;21.57;74.78;99218.94;4918870;29;20568;-76
2022/08/27 06:25:48;;;;;;;13.90;11.53;;;;;;;21.62;74.42;99221.91;4897523;29;20508;-77
2022/08/27 06:28:14;;;;;;;12.00;10.80;;;;;;;21.65;74.31;99217.00;4898212;29;20283;-75
2022/08/27 06:30:39;;;;;;;12.70;11.40;;;;;;;21.69;74.14;99214.84;4911182;29;20365;-75
2022/08/27 06:33:05;;;;;;;18.90;13.40;;;;;;;21.72;74.35;99217.16;4909027;29;20694;-75
2022/08/27 06:35:33;;;;;;;14.90;11.53;;;;;;;21.78;74.02;99226.28;4901070;29;20247;-77
2022/08/27 06:37:59;;;;;;;15.50;13.30;;;;;;;21.83;73.82;99222.06;4906524;29;20316;-75
2022/08/27 06:40:24;;;;;;;13.70;10.90;;;;;;;21.91;73.42;99229.19;4910530;29;20552;-75
2022/08/27 06:42:50;;;;;;;19.43;13.00;;;;;;;21.97;73.06;99222.28;4908539;29;20209;-75
2022/08/27 06:45:15;;;;;;;12.90;11.27;;;;;;;21.99;72.89;99229.13;4959277;23;20669;-77
2022/08/27 06:47:41;;;;;;;14.73;12.40;;;;;;;22.00;72.70;99232.63;4917893;29;20874;-78
2022/08/27 06:50:07;;;;;;;16.57;12.80;;;;;;;21.99;72.27;99231.81;4937359;29;20318;-78
2022/08/27 06:52:32;;;;;;;17.83;13.67;;;;;;;22.00;71.95;99232.63;4910824;28;20248;-79
2022/08/27 06:54:58;;;;;;;19.07;15.00;;;;;;;21.98;71.58;99227.47;4934168;29;20267;-78
2022/08/27 06:57:23;;;;;;;14.63;13.23;;;;;;;21.97;71.40;99225.78;4921457;29;20803;-78
2022/08/27 06:59:49;;;;;;;18.33;14.60;;;;;;;21.98;71.48;99223.94;4924022;29;20220;-79
2022/08/27 07:05:14;;;;;;;22.13;15.40;;;;;;;22.04;71.23;99236.63;4938348;29;20257;-78
2022/08/27 07:07:40;;;;;;;19.80;14.70;;;;;;;22.03;71.00;99233.09;4926478;29;21254;-79
2022/08/27 07:10:06;;;;;;;21.03;15.27;;;;;;;22.07;70.97;99225.56;4931713;29;20227;-78
2022/08/27 07:12:31;;;;;;;18.37;14.33;;;;;;;22.10;70.60;99223.34;4928768;29;20326;-78
2022/08/27 07:14:57;;;;;;;18.60;14.23;;;;;;;22.15;70.66;99228.16;4924617;29;20628;-80
2022/08/27 07:17:22;;;;;;;23.87;16.00;;;;;;;22.19;70.91;99225.97;4924984;29;20300;-80
2022/08/27 07:19:48;;;;;;;17.13;14.10;;;;;;;22.20;70.66;99230.31;4937781;29;20460;-80
2022/08/27 07:22:13;;;;;;;20.97;15.30;;;;;;;22.23;70.88;99232.63;4927237;29;20473;-80
2022/08/27 07:24:39;;;;;;;21.83;16.00;;;;;;;22.25;70.88;99231.44;4937719;29;20280;-80
2022/08/27 07:27:06;;;;;;;22.83;16.30;;;;;;;22.29;70.59;99230.03;4928187;29;20245;-78
2022/08/27 07:29:31;;;;;;;16.17;14.00;;;;;;;22.34;70.66;99234.03;4928124;29;20465;-78
2022/08/27 07:31:57;;;;;;;16.60;14.90;;;;;;;22.42;70.74;99233.94;4924013;29;20554;-78
2022/08/27 07:34:22;;;;;;;18.57;16.53;;;;;;;22.51;70.31;99230.16;4926203;29;20489;-79
2022/08/27 07:36:50;;;;;;;18.97;15.10;;;;;;;22.51;70.33;99230.16;4930659;29;20222;-79
2022/08/27 07:39:16;;;;;;;20.50;15.80;;;;;;;22.55;70.25;99231.47;4932998;29;20293;-78
2022/08/27 07:44:26;;;;;;;16.83;15.00;;;;;;;22.62;69.99;99243.09;4922785;29;20461;-80
2022/08/27 07:46:57;;;;;;;17.30;15.47;;;;;;;22.70;69.99;99237.63;4929369;29;20488;-79
2022/08/27 07:49:24;;;;;;;21.13;16.30;;;;;;;22.82;69.53;99242.53;4923222;29;20538;-79
2022/08/27 07:51:50;;;;;;;16.33;14.33;;;;;;;22.90;68.85;99237.91;4935651;29;20456;-78
2022/08/27 07:54:15;;;;;;;21.67;17.10;;;;;;;22.90;68.64;99239.75;4928217;29;20484;-78
2022/08/27 07:56:41;;;;;;;24.40;16.40;;;;;;;22.90;68.23;99237.91;4931745;29;20446;-79
2022/08/27 07:59:07;;;;;;;20.60;16.20;;;;;;;22.90;68.44;99237.06;4928548;29;20243;-80
2022/08/27 08:01:32;;;;;;;16.53;14.93;;;;;;;22.95;68.33;99234.66;4927650;29;20210;-79
2022/08/27 08:03:58;;;;;;;24.83;16.50;;;;;;;23.07;67.79;99227.84;4931704;29;20699;-78
2022/08/27 08:06:23;;;;;;;21.87;16.77;;;;;;;23.19;67.86;99231.69;4937909;29;20233;-79
2022/08/27 08:08:48;;;;;;;19.47;16.60;;;;;;;23.35;67.26;99233.31;4923854;29;20213;-79
2022/08/27 08:11:15;;;;;;;22.00;16.40;;;;;;;23.54;66.78;99234.56;4938027;29;20213;-78
2022/08/27 08:13:42;;;;;;;19.20;15.53;;;;;;;23.70;66.18;99236.16;4938243;29;20325;-78
2022/08/27 08:16:08;;;;;;;21.93;15.93;;;;;;;23.82;65.46;99231.97;4932329;29;20544;-78
2022/08/27 08:18:35;;;;;;;18.03;14.50;;;;;;;23.94;65.15;99228.78;4928281;29;20524;-80
2022/08/27 08:21:07;;;;;;;19.20;15.97;;;;;;;24.14;64.75;99242.34;4925638;29;20200;-81
2022/08/27 08:23:33;;;;;;;17.57;15.13;;;;;;;24.29;64.41;99243.91;4932872;29;20461;-79
2022/08/27 08:26:00;;;;;;;17.00;14.83;;;;;;;24.45;63.85;99242.00;4931848;29;20454;-79
2022/08/27 08:28:27;;;;;;;19.53;15.97;;;;;;;24.55;63.57;99241.63;4932495;29;20475;-78
2022/08/27 08:30:54;;;;;;;20.13;15.40;;;;;;;24.64;63.16;99243.97;4930460;29;20476;-79
2022/08/27 08:33:20;;;;;;;19.00;15.57;;;;;;;24.79;62.82;99246.56;4928636;29;20635;-80
2022/08/27 08:35:47;;;;;;;20.43;14.77;;;;;;;24.95;62.19;99248.06;4935892;29;20475;-79
2022/08/27 08:38:14;;;;;;;19.07;15.87;;;;;;;25.17;61.59;99243.47;4931653;29;20437;-79
2022/08/27 08:40:53;;;;;;;18.93;15.63;;;;;;;25.50;60.78;99242.72;4932280;29;20463;-79
2022/08/27 08:43:38;;;;;;;20.00;14.93;;;;;;;25.74;60.01;99238.63;4931050;29;20864;-79
2022/08/27 08:46:16;;;;;;;19.70;15.43;;;;;;;25.90;59.15;99238.28;4937788;29;20587;-78
2022/08/27 08:48:46;;;;;;;18.93;16.00;;;;;;;26.00;58.49;99233.28;4932710;29;20503;-80
2022/08/27 08:51:28;;;;;;;20.67;16.37;;;;;;;25.93;57.64;99242.41;4936665;29;20876;-79
2022/08/27 08:53:58;;;;;;;20.83;16.50;;;;;;;25.91;57.87;99242.59;4936021;29;21012;-79
2022/08/27 08:56:34;;;;;;;21.17;17.63;;;;;;;25.91;57.10;99241.78;4934893;29;20939;-80
2022/08/27 08:59:13;;;;;;;22.33;14.90;;;;;;;25.92;57.19;99238.03;4932616;29;20474;-77
2022/08/27 09:01:44;;;;;;;17.10;14.80;;;;;;;25.97;56.65;99236.38;4941963;29;20473;-80
2022/08/27 09:04:11;;;;;;;20.77;15.27;;;;;;;26.14;56.53;99234.13;4930088;29;20493;-77
2022/08/27 09:06:47;;;;;;;19.27;14.90;;;;;;;26.32;55.58;99236.19;4929642;29;20471;-79
2022/08/27 09:09:22;;;;;;;18.57;14.23;;;;;;;26.51;54.94;99223.75;4936145;29;20496;-80
2022/08/27 09:14:55;;;;;;;17.77;14.33;;;;;;;26.70;54.48;99230.94;5537182;23;20491;-80
2022/08/27 09:17:22;;;;;;;18.30;15.40;;;;;;;26.72;54.65;99225.34;4927402;29;20472;-80
2022/08/27 09:19:47;;;;;;;21.10;15.10;;;;;;;26.88;54.72;99226.75;4928884;29;21052;-79
2022/08/27 09:22:32;;;;;;;15.87;12.30;;;;;;;26.91;53.69;99229.84;4928140;29;20429;-80
2022/08/27 09:25:10;;;;;;;17.93;14.00;;;;;;;26.84;54.00;99226.38;4927437;29;20228;-79
2022/08/27 09:27:42;;;;;;;18.97;14.97;;;;;;;26.82;53.90;99227.63;4923074;29;21033;-81
2022/08/27 09:30:17;;;;;;;16.83;12.93;;;;;;;26.66;53.87;99227.03;4929349;29;20509;-80
2022/08/27 09:32:43;;;;;;;17.20;14.32;;;;;;;26.47;54.24;99235.97;4924959;29;20534;-79
2022/08/27 09:35:12;;;;;;;20.10;15.60;;;;;;;26.25;54.70;99235.38;4924463;29;20822;-80
2022/08/27 09:37:42;;;;;;;14.87;13.27;;;;;;;26.07;54.88;99236.00;4910503;29;20223;-78
2022/08/27 09:40:13;;;;;;;18.20;15.80;;;;;;;25.94;55.26;99238.69;4928323;29;20805;-79
2022/08/27 09:42:45;;;;;;;15.37;13.50;;;;;;;25.80;55.83;99235.94;4924656;29;21465;-79
2022/08/27 09:45:17;;;;;;;18.80;15.03;;;;;;;25.71;55.94;99234.50;4918324;29;20488;-79
2022/08/27 09:47:51;;;;;;;18.53;13.07;;;;;;;25.78;55.95;99237.19;4920491;29;20748;-79
2022/08/27 09:50:20;;;;;;;15.67;12.80;;;;;;;25.99;54.89;99228.13;4927174;29;21029;-79
2022/08/27 09:52:57;;;;;;;14.50;13.00;;;;;;;26.16;54.65;99233.91;4924062;29;20466;-79
2022/08/27 09:55:46;;;;;;;16.97;12.70;;;;;;;26.48;54.41;99226.84;4924638;29;20673;-78
2022/08/27 09:58:25;;;;;;;14.10;12.70;;;;;;;26.86;53.36;99224.28;4925955;29;20548;-79
2022/08/27 10:01:01;;;;;;;15.77;13.47;;;;;;;26.97;51.65;99228.16;4926973;29;20447;-79
2022/08/27 10:03:27;;;;;;;13.80;12.00;;;;;;;26.98;51.70;99229.84;4925060;29;20528;-79
2022/08/27 10:05:53;;;;;;;13.57;12.17;;;;;;;27.15;51.20;99216.69;4924940;29;20462;-79
2022/08/27 10:08:40;;;;;;;16.87;13.67;;;;;;;27.40;50.72;99207.88;4926393;29;20201;-79
2022/08/27 10:11:11;;;;;;;13.00;11.40;;;;;;;27.61;50.27;99212.94;4924325;29;21004;-80
2022/08/27 10:13:58;;;;;;;14.53;11.30;;;;;;;27.86;49.26;99206.75;4924437;29;20826;-81
2022/08/27 10:16:39;;;;;;;14.47;13.17;;;;;;;28.08;48.65;99204.50;4925571;29;20486;-78
2022/08/27 10:19:43;;;;;;;15.00;11.90;;;;;;;28.19;48.15;99203.78;4926728;29;20480;-80
2022/08/27 10:22:34;;;;;;;12.50;10.30;;;;;;;28.20;48.17;99205.44;4925134;29;20553;-79
2022/08/27 10:25:14;;;;;;;10.53;9.43;;;;;;;28.29;47.55;99198.69;4925086;29;20573;-78
2022/08/27 10:27:58;;;;;;;13.73;10.93;;;;;;;28.29;47.99;99192.47;4923443;29;20478;-78
2022/08/27 10:31:17;;;;;;;13.07;11.30;;;;;;;28.15;47.87;99194.47;4924283;29;20485;-78
2022/08/27 10:34:07;;;;;;;14.50;10.63;;;;;;;28.12;47.80;99190.34;4901357;29;20488;-78
2022/08/27 10:36:57;;;;;;;12.50;11.27;;;;;;;28.14;48.34;99192.81;4926799;29;20489;-78
2022/08/27 10:39:49;;;;;;;12.53;10.90;;;;;;;27.91;48.36;99190.75;4922911;29;20470;-78
2022/08/27 10:42:17;;;;;;;11.47;10.27;;;;;;;27.76;48.88;99182.91;4906201;29;20487;-78
2022/08/27 10:45:11;;;;;;;11.53;9.73;;;;;;;27.58;49.10;99181.00;4909305;29;20582;-78
2022/08/27 10:48:02;;;;;;;11.27;10.17;;;;;;;27.55;49.64;99178.75;4919643;29;20471;-79
2022/08/27 10:50:40;;;;;;;15.93;10.30;;;;;;;27.74;50.07;99183.16;4925147;29;20458;-79
2022/08/27 10:53:13;;;;;;;13.27;11.87;;;;;;;28.11;49.75;99187.84;4921624;29;20465;-79
2022/08/27 10:55:51;;;;;;;13.40;12.00;;;;;;;28.40;49.02;99184.44;4914996;29;20573;-79
2022/08/27 10:58:45;;;;;;;16.10;12.07;;;;;;;28.48;48.98;99190.66;4918631;29;21112;-78
2022/08/27 11:01:20;;;;;;;13.80;11.40;;;;;;;28.46;49.33;99188.16;4919170;29;20450;-79
2022/08/27 11:04:00;;;;;;;13.50;11.43;;;;;;;28.41;49.46;99190.69;4920185;29;20573;-78
2022/08/27 11:06:33;;;;;;;16.23;12.77;;;;;;;28.33;50.29;99181.00;4920564;29;20434;-79
2022/08/27 11:09:05;;;;;;;14.20;12.80;;;;;;;28.35;50.85;99184.28;4922428;29;20463;-78
2022/08/27 11:11:48;;;;;;;12.33;11.13;;;;;;;28.40;50.61;99179.03;4924669;29;20947;-78
2022/08/27 11:14:37;;;;;;;12.60;11.13;;;;;;;28.51;50.57;99171.28;4927971;28;21512;-78
2022/08/27 11:17:16;;;;;;;11.70;10.57;;;;;;;28.63;49.66;99172.19;4943033;29;20505;-78
2022/08/27 11:20:16;;;;;;;14.60;11.00;;;;;;;28.70;48.81;99172.09;4943612;28;20580;-78
2022/08/27 11:22:50;;;;;;;13.33;11.63;;;;;;;28.74;48.57;99168.72;4944719;28;20591;-78
2022/08/27 11:25:21;;;;;;;15.40;13.37;;;;;;;28.78;48.41;99169.91;4943643;29;20499;-78
2022/08/27 11:27:50;;;;;;;14.50;12.00;;;;;;;28.81;47.94;99168.63;4941966;28;20887;-78
2022/08/27 11:30:30;;;;;;;14.27;11.37;;;;;;;28.75;47.75;99162.25;4943504;28;20454;-77
2022/08/27 11:33:23;;;;;;;13.43;12.13;;;;;;;28.80;47.72;99173.22;4943822;28;20488;-78
2022/08/27 11:36:00;;;;;;;13.97;12.53;;;;;;;28.81;47.71;99164.06;4944732;29;20497;-79
2022/08/27 11:38:40;;;;;;;11.43;10.30;;;;;;;28.90;47.37;99167.28;4941629;29;20459;-80
2022/08/27 11:41:51;;;;;;;12.90;11.07;;;;;;;29.04;46.76;99157.16;4942825;29;20484;-79
2022/08/27 11:44:23;;;;;;;14.50;10.57;;;;;;;29.14;46.62;99152.03;4941604;29;20493;-79